Time;durP1;ratioP1;P1;durP2;ratioP2;P2;SDS_P1;SDS_P2;PMS_P1;PMS_P2;Temp;Humidity;BMP_temperature;BMP_pressure;BME280_temperature;BME280_humidity;BME280_pressure;Samples;Min_cycle;Max_cycle;Signal;HPM_P1;HPM_P2
2022/01/31 00:00:15;;;;;;;20.92;5.95;;;4.20;99.90;;;4.75;86.07;100538.09;5068224;28;20067;-74
2022/01/31 00:02:45;;;;;;;18.30;5.90;;;4.20;99.90;;;4.76;86.13;100528.63;5068248;28;20057;-74
2022/01/31 00:05:11;;;;;;;23.38;5.55;;;4.20;99.90;;;4.68;86.19;100518.38;5066963;28;20040;-73
2022/01/31 00:07:38;;;;;;;19.60;4.78;;;4.10;99.90;;;4.70;86.17;100505.03;5068291;28;20094;-76
2022/01/31 00:10:11;;;;;;;16.85;4.90;;;4.10;99.90;;;4.60;87.19;100497.84;5068000;28;20021;-74
2022/01/31 00:15:37;;;;;;;18.80;5.05;;;4.00;99.90;;;4.46;87.41;100455.69;5066870;28;20120;-74
2022/01/31 00:18:06;;;;;;;11.70;4.35;;;4.00;99.90;;;4.47;87.64;100456.47;5066449;28;20123;-75
2022/01/31 00:20:33;;;;;;;21.90;6.03;;;3.90;99.90;;;4.52;87.59;100459.94;5067609;28;20086;-74
2022/01/31 00:22:58;;;;;;;17.08;5.13;;;4.00;99.90;;;4.44;87.93;100449.66;5067773;28;20029;-74
2022/01/31 00:25:25;;;;;;;17.58;4.72;;;4.00;99.90;;;4.55;87.52;100439.94;5064359;28;20028;-74
2022/01/31 00:27:50;;;;;;;15.50;4.60;;;4.00;99.90;;;4.56;87.36;100451.81;5046314;28;20026;-74
2022/01/31 00:30:17;;;;;;;18.67;4.70;;;4.00;99.90;;;4.60;86.98;100450.81;5047657;28;20103;-75
2022/01/31 00:32:43;;;;;;;20.30;6.40;;;4.10;99.90;;;4.58;87.06;100439.28;5040876;28;20030;-73
2022/01/31 00:35:18;;;;;;;17.67;4.43;;;4.00;99.90;;;4.68;87.44;100421.56;5032920;28;20069;-74
2022/01/31 00:37:45;;;;;;;21.67;5.18;;;4.10;99.90;;;4.71;86.80;100405.13;5034188;28;20029;-74
2022/01/31 00:40:12;;;;;;;17.33;4.95;;;4.10;99.90;;;4.78;85.90;100399.88;5034366;28;20332;-75
2022/01/31 00:42:39;;;;;;;17.23;4.63;;;4.10;99.90;;;4.76;85.89;100398.59;5033986;28;20049;-75
2022/01/31 00:45:30;;;;;;;15.40;4.38;;;4.10;99.90;;;4.74;86.38;100396.16;5034114;28;20079;-74
2022/01/31 00:48:05;;;;;;;13.80;3.83;;;4.10;99.90;;;4.76;86.30;100388.34;5034169;28;20029;-74
2022/01/31 00:50:38;;;;;;;10.68;3.83;;;4.20;99.90;;;4.77;86.72;100372.56;5034375;28;20021;-74
2022/01/31 00:53:07;;;;;;;18.75;4.07;;;4.20;99.90;;;4.73;87.03;100366.03;5032651;28;20030;-74
2022/01/31 00:55:33;;;;;;;13.45;4.07;;;4.10;99.90;;;4.81;86.49;100368.00;5033668;28;20550;-74
2022/01/31 00:57:59;;;;;;;17.88;4.13;;;4.20;99.90;;;4.77;87.07;100361.50;5033769;28;20026;-75
2022/01/31 01:00:25;;;;;;;16.23;3.67;;;4.20;99.90;;;4.84;86.14;100348.00;5035883;28;20416;-74
2022/01/31 01:02:51;;;;;;;19.02;4.55;;;4.20;99.90;;;4.98;85.99;100345.00;5035147;28;20045;-74
2022/01/31 01:05:16;;;;;;;16.70;4.13;;;4.30;99.90;;;5.03;85.26;100334.59;5038515;28;20033;-73
2022/01/31 01:07:45;;;;;;;14.90;4.47;;;4.40;99.90;;;5.03;85.71;100306.94;5039102;28;20029;-73
2022/01/31 01:10:19;;;;;;;15.18;4.65;;;4.40;99.90;;;4.92;86.22;100282.69;5035839;28;20029;-75
2022/01/31 01:12:47;;;;;;;9.27;3.40;;;4.40;99.90;;;4.96;86.37;100272.59;5033944;28;20037;-74
2022/01/31 01:15:15;;;;;;;17.13;3.40;;;4.40;99.90;;;4.97;86.16;100271.44;5032320;28;20461;-76
2022/01/31 01:17:45;;;;;;;14.27;3.70;;;4.40;99.90;;;5.03;85.57;100243.25;5033742;28;20091;-74
2022/01/31 01:20:16;;;;;;;19.23;4.85;;;4.40;99.90;;;5.06;85.98;100230.72;5033602;28;20021;-77
2022/01/31 01:22:45;;;;;;;17.02;4.00;;;4.50;99.90;;;5.01;86.50;100212.31;5033554;28;20026;-74
2022/01/31 01:25:16;;;;;;;20.73;4.15;;;4.50;99.90;;;5.07;86.33;100201.91;5033462;28;20120;-75
2022/01/31 01:27:52;;;;;;;14.52;3.63;;;4.50;99.90;;;5.13;85.93;100197.81;5032539;28;20036;-77
2022/01/31 01:30:21;;;;;;;9.55;3.15;;;4.60;99.90;;;5.08;86.41;100190.47;5033609;28;20021;-76
2022/01/31 01:35:39;;;;;;;12.27;3.50;;;4.60;99.90;;;5.06;86.68;100176.16;5035400;28;20484;-76
2022/01/31 01:38:07;;;;;;;12.85;3.75;;;4.60;99.90;;;5.14;86.42;100152.34;5033867;28;20029;-76
2022/01/31 01:40:59;;;;;;;12.85;3.33;;;4.60;99.90;;;5.03;86.62;100129.78;5033473;28;20116;-74
2022/01/31 01:43:29;;;;;;;10.02;4.13;;;4.50;99.90;;;5.08;86.24;100132.34;5031207;28;20125;-74
2022/01/31 01:46:00;;;;;;;13.25;4.05;;;4.60;99.90;;;5.03;86.07;100115.94;5047631;28;20021;-76
2022/01/31 01:48:27;;;;;;;15.20;3.25;;;4.60;99.90;;;5.14;85.69;100086.72;5033646;28;20056;-75
2022/01/31 01:50:55;;;;;;;14.27;3.92;;;4.70;99.90;;;5.16;86.17;100075.31;5033692;28;20584;-75
2022/01/31 01:53:23;;;;;;;14.00;3.45;;;4.70;99.90;;;5.14;86.22;100063.75;5032943;28;20040;-75
2022/01/31 01:55:52;;;;;;;14.63;4.10;;;4.60;99.90;;;5.09;86.40;100050.94;5033390;28;20107;-73
2022/01/31 01:58:18;;;;;;;17.83;3.35;;;4.60;99.90;;;5.05;86.64;100041.69;5031910;28;20390;-75
2022/01/31 02:00:50;;;;;;;14.68;3.40;;;4.60;99.90;;;5.08;85.86;100013.34;5032898;28;20033;-75
2022/01/31 02:03:21;;;;;;;8.77;3.08;;;4.60;99.90;;;5.10;85.95;99997.22;5032983;28;20384;-74
2022/01/31 02:05:48;;;;;;;14.00;3.40;;;4.60;99.90;;;5.05;86.00;99974.44;5032802;28;20167;-75
2022/01/31 02:08:19;;;;;;;12.77;3.28;;;4.60;99.90;;;5.02;86.55;99964.06;5033221;28;20108;-75
2022/01/31 02:10:49;;;;;;;17.65;3.55;;;4.60;99.90;;;5.04;86.48;99962.56;5032871;28;20033;-76
2022/01/31 02:13:24;;;;;;;19.55;4.15;;;4.50;99.90;;;5.08;86.40;99946.09;5032531;28;20036;-74
2022/01/31 02:15:51;;;;;;;;;;;4.50;99.90;;;4.98;86.78;99936.25;5033110;28;20033;-75
2022/01/31 02:18:19;;;;;;;;;;;4.50;99.90;;;4.84;88.23;99940.44;5031646;28;19931;-75
2022/01/31 02:20:45;;;;;;;12.50;3.40;;;4.50;99.90;;;4.88;88.74;99931.09;5032415;28;19917;-76
2022/01/31 02:23:14;;;;;;;17.15;4.03;;;4.40;99.90;;;4.88;88.46;99916.50;5031926;28;20475;-75
2022/01/31 02:26:04;;;;;;;13.40;3.20;;;4.40;99.90;;;4.83;88.67;99911.94;5050774;28;20415;-74
2022/01/31 02:28:35;;;;;;;17.83;3.50;;;4.40;99.90;;;4.85;89.63;99884.75;5052553;28;20025;-75
2022/01/31 02:31:06;;;;;;;13.75;3.78;;;4.30;99.90;;;4.84;91.87;99901.69;5052219;28;20025;-75
2022/01/31 02:33:34;;;;;;;16.08;3.60;;;4.30;99.90;;;4.73;94.21;99881.94;5052887;28;20029;-76
2022/01/31 02:36:05;;;;;;;15.50;3.25;;;4.20;99.90;;;4.62;97.25;99892.56;5052235;28;20037;-74
2022/01/31 02:38:32;;;;;;;15.25;3.42;;;4.20;99.90;;;4.55;98.64;99870.19;5052666;28;20112;-75
2022/01/31 02:40:58;;;;;;;14.23;3.75;;;4.10;99.90;;;4.37;100.00;99863.16;5052567;28;20029;-75
2022/01/31 02:43:29;;;;;;;13.20;4.00;;;4.00;99.90;;;4.39;100.00;99868.38;5052751;28;20112;-76
2022/01/31 02:45:56;;;;;;;17.63;3.90;;;3.90;99.90;;;4.40;100.00;99865.25;5052535;28;20044;-78
2022/01/31 02:48:25;;;;;;;11.55;3.40;;;3.90;99.90;;;4.37;100.00;99843.00;5058214;28;20052;-76
2022/01/31 02:50:53;;;;;;;17.73;3.70;;;3.90;99.90;;;4.33;100.00;99851.19;5076833;28;20025;-75
2022/01/31 02:53:27;;;;;;;15.75;4.13;;;3.80;99.90;;;4.26;100.00;99834.31;5060268;28;20052;-75
2022/01/31 02:55:59;;;;;;;16.30;4.53;;;3.80;99.90;;;4.26;100.00;99828.78;5064551;28;20080;-76
2022/01/31 02:58:28;;;;;;;18.92;4.45;;;3.70;99.90;;;4.21;100.00;99820.66;5064797;28;20044;-75
2022/01/31 03:00:58;;;;;;;13.82;4.47;;;3.60;99.90;;;4.10;100.00;99825.00;5063259;28;20032;-78
2022/01/31 03:03:25;;;;;;;13.75;4.90;;;3.60;99.90;;;4.11;100.00;99821.09;5051498;28;20031;-76
2022/01/31 03:05:52;;;;;;;16.45;4.75;;;3.60;99.90;;;4.04;100.00;99793.19;5051978;28;20151;-76
2022/01/31 03:08:18;;;;;;;17.60;5.13;;;3.50;99.90;;;3.96;100.00;99792.06;5050586;28;20028;-75
2022/01/31 03:10:44;;;;;;;12.55;4.00;;;3.40;99.90;;;3.80;100.00;99774.47;5051676;28;20021;-77
2022/01/31 03:13:10;;;;;;;18.45;4.60;;;3.30;99.90;;;3.66;100.00;99766.41;5051611;28;20386;-75
2022/01/31 03:15:39;;;;;;;10.70;4.55;;;3.20;99.90;;;3.51;100.00;99764.22;5051707;28;20028;-76
2022/01/31 03:18:06;;;;;;;15.63;4.63;;;3.10;99.90;;;3.45;100.00;99762.00;5051485;28;20047;-76
2022/01/31 03:20:35;;;;;;;13.38;4.35;;;3.00;99.90;;;3.29;100.00;99750.69;5048032;28;20024;-75
2022/01/31 03:23:01;;;;;;;13.73;4.88;;;3.00;99.90;;;3.28;100.00;99742.75;5052608;28;20029;-75
2022/01/31 03:25:28;;;;;;;19.25;5.10;;;2.90;99.90;;;3.22;100.00;99744.06;5049347;28;20113;-74
2022/01/31 03:27:55;;;;;;;14.10;4.78;;;2.80;99.90;;;3.22;100.00;99738.56;5030153;28;20052;-76
2022/01/31 03:30:25;;;;;;;18.77;4.35;;;2.80;99.90;;;3.06;100.00;99733.59;5032111;28;20025;-77
2022/01/31 03:32:53;;;;;;;14.13;4.40;;;2.60;99.90;;;2.92;100.00;99726.69;5032276;28;20033;-76
2022/01/31 03:35:20;;;;;;;17.10;5.10;;;2.50;99.90;;;2.71;100.00;99723.00;5031800;28;20033;-77
2022/01/31 03:37:46;;;;;;;10.43;4.60;;;2.40;99.90;;;2.61;100.00;99711.19;5032585;28;20049;-77
2022/01/31 03:40:12;;;;;;;13.00;5.32;;;2.20;99.90;;;2.56;100.00;99711.38;5031969;28;20025;-76
2022/01/31 03:42:39;;;;;;;14.68;5.28;;;2.10;99.90;;;2.55;100.00;99709.75;5031437;28;20029;-77
2022/01/31 03:45:10;;;;;;;15.25;4.90;;;2.00;99.90;;;2.45;100.00;99699.06;5031123;28;20021;-76
2022/01/31 03:47:44;;;;;;;10.57;4.97;;;2.00;99.90;;;2.43;100.00;99697.78;5031707;28;20041;-76
2022/01/31 03:50:17;;;;;;;14.65;4.68;;;2.00;99.90;;;2.56;100.00;99697.59;5031271;28;20025;-77
2022/01/31 03:52:44;;;;;;;12.70;5.28;;;2.00;99.90;;;2.52;100.00;99682.84;5031317;28;20087;-78
2022/01/31 03:55:14;;;;;;;12.85;4.88;;;2.00;99.90;;;2.59;100.00;99674.06;5031423;28;20030;-76
2022/01/31 03:57:40;;;;;;;10.60;4.82;;;2.00;99.90;;;2.55;100.00;99664.81;5031600;28;20033;-77
2022/01/31 04:00:12;;;;;;;10.95;5.13;;;2.10;99.90;;;2.62;100.00;99657.69;5031464;28;20461;-75
2022/01/31 04:02:38;;;;;;;13.10;5.43;;;2.10;99.90;;;2.73;100.00;99640.78;5030032;28;20055;-77
2022/01/31 04:05:05;;;;;;;12.25;5.30;;;2.20;99.90;;;2.80;100.00;99627.25;5055048;22;20037;-76
2022/01/31 04:07:31;;;;;;;13.20;5.32;;;2.20;99.90;;;2.85;100.00;99618.81;5019303;28;20066;-80
2022/01/31 04:09:57;;;;;;;12.43;4.28;;;2.30;99.90;;;2.89;100.00;99617.81;5019601;28;20480;-78
2022/01/31 04:12:23;;;;;;;9.60;4.40;;;2.40;99.90;;;2.99;100.00;99619.38;5020660;28;20045;-78
2022/01/31 04:14:50;;;;;;;10.40;4.60;;;2.50;99.90;;;3.08;100.00;99609.91;5018139;28;20030;-77
2022/01/31 04:17:25;;;;;;;6.63;3.78;;;2.60;99.90;;;3.26;100.00;99598.78;5015488;28;20417;-78
2022/01/31 04:19:52;;;;;;;7.68;3.80;;;2.70;99.90;;;3.29;100.00;99609.97;5015667;28;20030;-76
2022/01/31 04:22:20;;;;;;;6.40;3.85;;;2.80;99.90;;;3.40;100.00;99597.41;5016623;28;20089;-77
2022/01/31 04:24:52;;;;;;;10.93;4.53;;;2.90;99.90;;;3.56;100.00;99595.63;5001398;28;20478;-76
2022/01/31 04:27:19;;;;;;;7.50;3.67;;;2.90;99.90;;;3.65;100.00;99601.91;5018280;28;20116;-79
2022/01/31 04:29:47;;;;;;;8.77;4.25;;;3.00;99.90;;;3.75;100.00;99595.16;5018899;28;20513;-78
2022/01/31 04:32:13;;;;;;;9.70;4.07;;;3.10;99.90;;;3.76;100.00;99584.94;5019467;28;20042;-76
2022/01/31 04:34:40;;;;;;;11.40;3.88;;;3.20;99.90;;;3.83;100.00;99585.97;5020285;28;20037;-76
2022/01/31 04:37:07;;;;;;;5.25;3.30;;;3.30;99.90;;;3.94;100.00;99586.38;5020559;28;20457;-79
2022/01/31 04:39:33;;;;;;;8.20;3.80;;;3.40;99.90;;;4.00;100.00;99579.47;5019814;28;20136;-77
2022/01/31 04:42:06;;;;;;;9.57;3.85;;;3.40;99.90;;;4.14;100.00;99566.97;5020280;28;20049;-78
2022/01/31 04:44:32;;;;;;;6.85;4.43;;;3.50;99.90;;;4.25;100.00;99572.88;5019621;28;20026;-76
2022/01/31 04:47:05;;;;;;;7.38;4.75;;;3.60;99.90;;;4.36;100.00;99559.44;5034637;28;20073;-77
2022/01/31 04:49:37;;;;;;;14.05;6.15;;;3.70;99.90;;;4.51;100.00;99565.09;5016892;28;20116;-78
2022/01/31 04:52:04;;;;;;;15.15;5.57;;;3.80;99.90;;;4.69;100.00;99568.44;5018672;28;20038;-79
2022/01/31 04:54:33;;;;;;;10.98;5.90;;;4.00;99.90;;;4.71;100.00;99561.41;5018364;28;20030;-79
2022/01/31 04:56:59;;;;;;;11.82;6.82;;;4.00;99.90;;;4.78;100.00;99550.56;5020978;28;20180;-76
2022/01/31 04:59:40;;;;;;;12.50;6.78;;;4.10;99.90;;;4.83;100.00;99557.84;5021491;28;20041;-77
2022/01/31 05:02:06;;;;;;;11.57;6.97;;;4.20;99.90;;;4.91;100.00;99553.34;5021493;28;20022;-76
2022/01/31 05:04:32;;;;;;;14.93;6.30;;;4.30;99.90;;;4.99;100.00;99541.34;5028439;28;20441;-74
2022/01/31 05:06:58;;;;;;;13.85;6.65;;;4.30;99.90;;;5.03;100.00;99545.03;5038038;28;20025;-76
2022/01/31 05:09:24;;;;;;;15.88;7.88;;;4.40;99.90;;;5.18;100.00;99544.31;5049853;28;20038;-79
2022/01/31 05:11:49;;;;;;;12.38;6.40;;;4.40;99.90;;;5.18;100.00;99547.88;5022322;28;20030;-77
2022/01/31 05:14:17;;;;;;;15.43;6.90;;;4.50;99.90;;;5.20;100.00;99539.25;5033916;28;20538;-77
2022/01/31 05:16:45;;;;;;;13.55;7.00;;;4.50;99.90;;;5.31;100.00;99543.13;5019667;28;20030;-76
2022/01/31 05:19:11;;;;;;;18.75;7.18;;;4.50;99.90;;;5.29;100.00;99542.69;5023463;28;20099;-77
2022/01/31 05:21:38;;;;;;;16.00;7.90;;;4.60;99.90;;;5.35;100.00;99537.69;5023052;28;20030;-76
2022/01/31 05:24:06;;;;;;;15.13;7.45;;;4.60;99.90;;;5.30;100.00;99530.44;5020644;28;20092;-76
2022/01/31 05:26:34;;;;;;;13.43;6.95;;;4.60;99.90;;;5.43;100.00;99533.97;5009997;28;20038;-77
2022/01/31 05:29:00;;;;;;;20.08;7.97;;;4.60;99.90;;;5.38;100.00;99512.88;5002987;28;20038;-77
2022/01/31 05:31:26;;;;;;;14.52;8.40;;;4.70;99.90;;;5.43;100.00;99512.63;5000775;28;20041;-75
2022/01/31 05:33:54;;;;;;;23.60;8.93;;;4.70;99.90;;;5.50;100.00;99515.59;5005456;28;20027;-77
2022/01/31 05:36:21;;;;;;;18.23;9.75;;;4.80;99.90;;;5.54;100.00;99512.94;5005032;28;20030;-78
2022/01/31 05:38:47;;;;;;;12.38;7.95;;;4.80;99.90;;;5.54;100.00;99502.69;5020241;28;20030;-77
2022/01/31 05:41:18;;;;;;;16.92;7.30;;;4.80;99.90;;;5.54;100.00;99493.56;5006159;28;20037;-79
2022/01/31 05:43:47;;;;;;;20.15;7.13;;;4.80;99.90;;;5.58;100.00;99500.00;5005481;28;20172;-79
2022/01/31 05:46:13;;;;;;;19.05;8.45;;;4.90;99.90;;;5.53;100.00;99481.66;5009147;28;20523;-79
2022/01/31 05:48:38;;;;;;;19.98;9.32;;;4.90;99.90;;;5.65;100.00;99484.38;5007151;28;20106;-78
2022/01/31 05:51:17;;;;;;;19.98;7.45;;;5.00;99.90;;;5.58;100.00;99492.50;5002190;28;20033;-77
2022/01/31 05:53:46;;;;;;;13.85;7.60;;;5.00;99.90;;;5.59;100.00;99494.09;5016465;28;20485;-78
2022/01/31 05:56:19;;;;;;;18.30;7.68;;;5.00;99.90;;;5.74;100.00;99487.00;5004326;28;20097;-77
2022/01/31 05:58:46;;;;;;;14.82;6.80;;;5.10;99.90;;;5.74;100.00;99476.75;5022492;28;20026;-78
2022/01/31 06:01:15;;;;;;;20.70;7.70;;;5.10;99.90;;;5.78;100.00;99483.16;5005869;28;20072;-81
2022/01/31 06:03:41;;;;;;;15.07;7.43;;;5.10;99.90;;;5.75;100.00;99488.59;5002433;28;20038;-77
2022/01/31 06:06:08;;;;;;;12.98;6.25;;;5.00;99.90;;;5.70;100.00;99481.38;5017373;28;20057;-76
2022/01/31 06:08:34;;;;;;;16.60;6.70;;;5.00;99.90;;;5.65;100.00;99473.31;5000675;28;20049;-78
2022/01/31 06:11:00;;;;;;;14.18;6.97;;;5.00;99.90;;;5.75;100.00;99463.66;5006275;28;20030;-78
2022/01/31 06:13:31;;;;;;;20.33;6.07;;;5.10;99.90;;;5.86;100.00;99466.78;5004332;28;20114;-78
2022/01/31 06:15:57;;;;;;;20.60;6.20;;;5.00;99.90;;;5.92;100.00;99479.19;5001434;28;20030;-78
2022/01/31 06:18:22;;;;;;;23.27;6.80;;;5.10;99.90;;;5.94;100.00;99479.66;5016919;28;20069;-79
2022/01/31 06:20:48;;;;;;;10.30;4.47;;;5.10;99.90;;;5.94;100.00;99457.50;5001842;28;20041;-78
2022/01/31 06:23:14;;;;;;;28.50;7.30;;;5.20;99.90;;;5.87;100.00;99460.88;5000499;28;20033;-79
2022/01/31 06:25:40;;;;;;;15.65;4.60;;;5.20;99.90;;;6.04;100.00;99457.75;5008274;28;20030;-78
2022/01/31 06:28:07;;;;;;;11.35;4.72;;;5.30;99.90;;;6.02;100.00;99464.81;5028239;28;20033;-80
2022/01/31 06:30:35;;;;;;;16.92;4.38;;;5.30;99.90;;;5.92;100.00;99457.03;5028612;28;20082;-79
2022/01/31 06:33:02;;;;;;;13.07;4.57;;;5.30;99.90;;;5.94;100.00;99455.50;5029389;28;20022;-77
2022/01/31 06:35:27;;;;;;;10.38;3.58;;;5.20;99.90;;;5.86;100.00;99444.59;5020921;28;20030;-78
2022/01/31 06:37:57;;;;;;;14.93;5.45;;;5.20;99.90;;;5.96;100.00;99447.66;5024587;28;20064;-76
2022/01/31 06:40:23;;;;;;;12.60;3.70;;;5.30;99.90;;;6.04;100.00;99445.84;5020276;28;20038;-77
2022/01/31 06:42:49;;;;;;;11.80;4.35;;;5.30;99.90;;;6.00;100.00;99437.47;5021401;28;20092;-77
2022/01/31 06:45:15;;;;;;;12.68;5.15;;;5.30;99.90;;;5.99;100.00;99438.63;5036850;28;20030;-77
2022/01/31 06:47:41;;;;;;;15.15;5.47;;;5.30;99.90;;;5.94;100.00;99447.19;5021213;28;20026;-78
2022/01/31 06:50:09;;;;;;;12.93;5.35;;;5.30;99.90;;;5.94;100.00;99438.88;5024395;28;20500;-80
2022/01/31 06:52:37;;;;;;;13.57;5.63;;;5.30;99.90;;;5.96;100.00;99441.31;5021965;28;20056;-78
2022/01/31 06:55:06;;;;;;;12.00;5.45;;;5.20;99.90;;;5.98;100.00;99450.06;5039935;28;20588;-79
2022/01/31 06:57:35;;;;;;;14.38;5.38;;;5.30;99.90;;;6.06;100.00;99443.56;5022195;28;20222;-78
2022/01/31 07:00:08;;;;;;;16.42;4.97;;;5.20;99.90;;;5.93;100.00;99442.03;5017910;28;20030;-78
2022/01/31 07:02:36;;;;;;;10.73;4.38;;;5.30;99.90;;;5.96;100.00;99436.56;5015681;28;20401;-77
2022/01/31 07:05:02;;;;;;;15.55;4.72;;;5.30;99.90;;;5.97;100.00;99440.16;5032122;28;20029;-77
2022/01/31 07:07:34;;;;;;;19.92;6.30;;;5.20;99.90;;;5.95;100.00;99443.28;5020888;28;20026;-77
2022/01/31 07:10:05;;;;;;;16.67;5.70;;;5.20;99.90;;;5.89;100.00;99435.56;5021448;28;20056;-78
2022/01/31 07:12:38;;;;;;;12.80;4.88;;;5.10;99.90;;;5.95;100.00;99429.41;5017196;28;20060;-78
2022/01/31 07:15:10;;;;;;;20.35;4.68;;;5.20;99.90;;;5.96;100.00;99431.03;5018322;28;20508;-78
2022/01/31 07:17:37;;;;;;;19.48;5.53;;;5.20;99.90;;;5.84;100.00;99433.84;5019102;28;20501;-78
2022/01/31 07:20:11;;;;;;;14.27;5.15;;;5.20;99.90;;;5.60;100.00;99439.53;5016780;28;20408;-77
2022/01/31 07:22:39;;;;;;;16.83;5.13;;;5.00;99.90;;;5.61;100.00;99441.13;5019935;28;20117;-77
2022/01/31 07:25:20;;;;;;;8.10;4.38;;;5.00;99.90;;;5.47;100.00;99449.03;5038518;28;20033;-76
2022/01/31 07:27:47;;;;;;;13.90;4.80;;;4.90;99.90;;;5.43;100.00;99454.47;4982743;28;20086;-78
2022/01/31 07:30:13;;;;;;;9.65;4.25;;;4.80;99.90;;;5.32;100.00;99451.44;4983328;28;20142;-78
2022/01/31 07:32:42;;;;;;;7.65;3.33;;;4.80;99.90;;;5.27;100.00;99450.84;4995476;28;20031;-78
2022/01/31 07:35:10;;;;;;;9.10;3.40;;;4.70;99.90;;;5.30;100.00;99444.59;4994659;28;20033;-78
2022/01/31 07:37:36;;;;;;;4.40;2.10;;;4.60;99.90;;;5.20;100.00;99443.16;4994334;28;20058;-79
2022/01/31 07:40:06;;;;;;;10.18;2.30;;;4.60;99.90;;;5.10;100.00;99429.84;4979910;28;20030;-79
2022/01/31 07:42:38;;;;;;;4.30;2.30;;;4.50;99.90;;;5.14;100.00;99438.22;4994706;28;20035;-79
2022/01/31 07:45:11;;;;;;;4.10;2.08;;;4.50;99.90;;;5.11;100.00;99445.25;4982458;28;20035;-79
2022/01/31 07:47:38;;;;;;;6.35;2.47;;;4.50;99.90;;;5.13;100.00;99447.69;4998777;28;20510;-79
2022/01/31 07:50:05;;;;;;;5.53;1.80;;;4.50;99.90;;;5.02;100.00;99439.06;4997695;28;20034;-76
2022/01/31 07:52:32;;;;;;;5.78;2.60;;;4.40;99.90;;;5.07;100.00;99435.25;4998463;28;20462;-78
2022/01/31 07:54:58;;;;;;;7.38;2.30;;;4.40;99.90;;;5.00;100.00;99458.00;4983285;28;20050;-77
2022/01/31 07:57:25;;;;;;;7.03;2.63;;;4.30;99.90;;;4.98;100.00;99446.44;4984853;28;20031;-77
2022/01/31 07:59:53;;;;;;;7.57;3.00;;;4.30;99.90;;;4.94;100.00;99444.75;5000677;28;20110;-78
2022/01/31 08:02:19;;;;;;;7.10;2.42;;;4.30;99.90;;;4.88;100.00;99432.31;5002215;28;20552;-77
2022/01/31 08:04:45;;;;;;;6.47;2.35;;;4.20;99.90;;;4.80;100.00;99434.06;5002821;28;20067;-77
2022/01/31 08:07:12;;;;;;;7.80;2.40;;;4.20;99.90;;;4.88;100.00;99432.31;4987193;28;20101;-78
2022/01/31 08:09:39;;;;;;;8.90;2.88;;;4.20;99.90;;;4.83;100.00;99435.31;5002178;28;20058;-75
2022/01/31 08:12:06;;;;;;;6.65;2.92;;;4.20;99.90;;;4.86;100.00;99424.34;4988780;28;20023;-77
2022/01/31 08:14:32;;;;;;;8.10;3.28;;;4.20;99.90;;;4.90;100.00;99416.97;4989266;28;20039;-77
2022/01/31 08:16:58;;;;;;;8.15;4.78;;;4.20;99.90;;;4.79;100.00;99424.13;4987154;28;20038;-76
2022/01/31 08:19:25;;;;;;;12.75;5.03;;;4.20;99.90;;;4.84;100.00;99421.16;5004322;28;20034;-77
2022/01/31 08:21:51;;;;;;;11.25;5.25;;;4.20;99.90;;;4.73;100.00;99418.03;5004623;28;20046;-76
2022/01/31 08:24:17;;;;;;;9.30;4.93;;;4.10;99.90;;;4.87;100.00;99417.69;5004299;28;20126;-76
2022/01/31 08:26:43;;;;;;;7.85;4.32;;;4.20;99.90;;;4.84;100.00;99412.84;5010768;28;20112;-76
2022/01/31 08:29:32;;;;;;;11.02;5.30;;;4.20;99.90;;;4.90;100.00;99413.41;5027658;28;20078;-76
2022/01/31 08:31:57;;;;;;;;;;;4.20;99.90;;;4.87;100.00;99391.97;5026440;28;20042;-75
2022/01/31 08:37:14;;;;;;;10.30;5.10;;;4.20;99.90;;;4.95;100.00;99389.03;5035086;28;20024;-76
2022/01/31 08:39:41;;;;;;;9.43;5.15;;;4.20;99.90;;;4.88;100.00;99375.00;5051018;28;20094;-80
2022/01/31 08:42:10;;;;;;;10.77;4.55;;;4.30;99.90;;;4.94;100.00;99375.59;5021002;28;20042;-78
2022/01/31 08:44:40;;;;;;;7.82;4.53;;;4.30;99.90;;;4.94;100.00;99381.94;5020717;28;20030;-78
2022/01/31 08:47:07;;;;;;;8.73;4.47;;;4.30;99.90;;;4.95;100.00;99383.50;5019979;28;20053;-79
2022/01/31 08:49:36;;;;;;;11.30;4.05;;;4.30;99.90;;;5.03;100.00;99365.97;5036587;28;20442;-76
2022/01/31 08:52:05;;;;;;;6.70;3.95;;;4.30;99.90;;;5.04;100.00;99364.78;5021953;28;20049;-76
2022/01/31 08:54:34;;;;;;;10.50;4.20;;;4.30;99.90;;;5.05;100.00;99363.66;5036547;28;20064;-77
2022/01/31 08:57:07;;;;;;;11.20;4.50;;;4.30;99.90;;;5.10;100.00;99360.66;5020311;28;20034;-78
2022/01/31 08:59:33;;;;;;;8.90;4.28;;;4.40;99.90;;;5.00;100.00;99358.38;5022368;28;20026;-76
2022/01/31 09:02:10;;;;;;;11.55;4.38;;;4.40;99.90;;;5.03;100.00;99354.09;5021077;28;20028;-76
2022/01/31 09:04:48;;;;;;;12.73;5.45;;;4.40;99.90;;;5.15;100.00;99374.22;5023843;28;20037;-78
2022/01/31 09:07:24;;;;;;;8.35;4.18;;;4.40;99.90;;;5.11;100.00;99361.44;5038474;28;20137;-77
2022/01/31 09:09:53;;;;;;;10.57;3.70;;;4.40;99.90;;;5.22;100.00;99359.78;5024923;28;20101;-76
2022/01/31 09:12:29;;;;;;;8.95;3.97;;;4.50;99.90;;;4.96;100.00;99348.34;5023721;28;20482;-75
2022/01/31 09:14:59;;;;;;;8.48;3.80;;;4.50;99.90;;;5.12;100.00;99355.56;5023161;28;20034;-77
2022/01/31 09:17:24;;;;;;;8.70;4.50;;;4.40;99.90;;;5.06;100.00;99339.56;5022552;28;20106;-76
2022/01/31 09:19:53;;;;;;;8.90;3.90;;;4.50;99.90;;;5.12;100.00;99357.50;5022722;28;20030;-77
2022/01/31 09:22:19;;;;;;;7.30;3.63;;;4.40;99.90;;;5.13;100.00;99343.34;5023723;28;20026;-76
2022/01/31 09:24:46;;;;;;;9.93;3.53;;;4.40;99.90;;;5.14;100.00;99339.38;5022784;28;20062;-78
2022/01/31 09:27:15;;;;;;;6.55;3.65;;;4.50;99.90;;;5.16;100.00;99347.34;5007911;28;20048;-78
2022/01/31 09:29:43;;;;;;;10.95;4.07;;;4.50;99.90;;;5.17;100.00;99332.38;5003228;28;20054;-77
2022/01/31 09:32:13;;;;;;;6.13;3.42;;;4.50;99.90;;;5.12;100.00;99336.19;5005911;28;20034;-78
2022/01/31 09:34:40;;;;;;;8.77;3.60;;;4.50;99.90;;;5.19;100.00;99347.44;5004661;28;20034;-79
2022/01/31 09:37:07;;;;;;;8.50;2.95;;;4.50;99.90;;;5.19;100.00;99330.84;5018100;28;20045;-78
2022/01/31 09:39:35;;;;;;;10.75;2.92;;;4.50;99.90;;;5.24;100.00;99329.75;5018748;28;20166;-76
2022/01/31 09:42:10;;;;;;;8.02;4.68;;;4.60;99.90;;;5.14;100.00;99314.47;5003110;28;20026;-75
2022/01/31 09:47:19;;;;;;;7.68;2.25;;;4.60;99.90;;;5.23;100.00;99325.41;5006144;28;20103;-77
2022/01/31 09:49:49;;;;;;;8.23;2.22;;;4.60;99.90;;;5.22;100.00;99334.84;5004114;28;20367;-75
2022/01/31 09:52:15;;;;;;;7.47;2.33;;;4.70;99.90;;;5.32;100.00;99334.34;5003402;28;20062;-76
2022/01/31 09:54:42;;;;;;;7.47;2.08;;;4.70;99.90;;;5.27;100.00;99329.06;5002802;28;20104;-78
2022/01/31 09:57:09;;;;;;;5.78;2.53;;;4.70;99.90;;;5.38;100.00;99332.13;5000525;28;20038;-77
2022/01/31 09:59:34;;;;;;;10.55;2.78;;;4.70;99.90;;;5.25;100.00;99329.44;5001171;28;20516;-76
2022/01/31 10:02:11;;;;;;;9.98;2.30;;;4.70;99.90;;;5.44;100.00;99330.69;5001619;28;20030;-78
2022/01/31 10:04:46;;;;;;;10.52;2.53;;;4.70;99.90;;;5.44;100.00;99339.81;4999466;28;20026;-76
2022/01/31 10:07:15;;;;;;;7.72;3.00;;;4.80;99.90;;;5.45;100.00;99329.53;4999941;28;20031;-78
2022/01/31 10:09:47;;;;;;;12.70;2.50;;;4.80;99.90;;;5.42;100.00;99333.03;4999265;28;20038;-78
2022/01/31 10:12:25;;;;;;;7.45;2.45;;;4.80;99.90;;;5.55;100.00;99329.00;4997858;28;20049;-76
2022/01/31 10:17:45;;;;;;;10.60;2.60;;;4.90;99.90;;;5.49;100.00;99345.06;5001518;28;20045;-78
2022/01/31 10:20:29;;;;;;;11.68;2.60;;;4.90;99.90;;;5.55;100.00;99346.44;5000085;28;20141;-77
2022/01/31 10:23:07;;;;;;;11.55;3.05;;;4.90;99.90;;;5.57;100.00;99354.38;5015226;28;20030;-76
2022/01/31 10:25:40;;;;;;;10.43;2.80;;;5.00;99.90;;;5.57;100.00;99374.56;5003814;28;20037;-77
2022/01/31 10:28:19;;;;;;;11.90;2.75;;;5.00;99.90;;;5.48;100.00;99350.97;5019730;28;20025;-75
2022/01/31 10:30:51;;;;;;;9.73;2.10;;;5.10;99.90;;;5.48;100.00;99364.81;5019488;28;20061;-76
2022/01/31 10:33:20;;;;;;;13.60;2.67;;;5.00;99.90;;;5.51;100.00;99377.94;5019209;28;20485;-77
2022/01/31 10:35:46;;;;;;;8.82;2.08;;;5.00;99.90;;;5.49;100.00;99377.50;5019850;28;20030;-77
2022/01/31 10:38:14;;;;;;;5.75;2.03;;;5.00;99.90;;;5.50;100.00;99381.88;5035966;28;20033;-78
2022/01/31 10:50:37;;;;;;;7.10;2.17;;;5.00;99.90;;;5.58;100.00;99406.66;5018043;28;20041;-75
2022/01/31 10:52:32;;;;;;;7.50;2.15;;;5.00;99.90;;;5.53;100.00;99409.66;5020437;28;20041;-76